American Queen — WDG2957 — position and weather

sailwx.info

Track history (hours):
 
Tides and Currents Weather Stations Pressure Air Temp Water Temp Dewpoint Dewpoint Depression Visibility Wind Speed Wind Dir Waves Ship Positions

American Queen

Owner: HMS American Queen Steamboat Company, LLC, Memphis, TN. More information available from US FCC via Universal Licensing System and Coast Guard Vessel Documentation Center.

Last reported at 2017-Oct-07 04:09 UTC. Time now 2017-Oct-18 16:29 UTC.
Position N 32°46' W 091°09'.
Warning: this ship's position is 11 days out of date.

Length 128 m; draft 2.6 m.

Type: Passenger vessel. MMSI: 366950740.

Date/timePositionNaut miles runAvg speedWind from/ knotsBaromVisibWave heightAir tempDewpointWater temp
2017-Oct-07 04:09N 32°46' W 091°09'1 6.4
2017-Oct-07 04:00N 32°45' W 091°09'4 5.4
2017-Oct-07 03:17N 32°44' W 091°05'8 1.8
2017-Oct-06 23:06N 32°38' W 091°09'1 6.5
2017-Oct-06 23:00N 32°37' W 091°09'3 5.9
2017-Oct-06 22:30N 32°35' W 091°07'3 5.3
2017-Oct-06 22:00N 32°32' W 091°06'3 6.6
2017-Oct-06 21:30N 32°29' W 091°07'3 6.7
2017-Oct-06 21:00N 32°27' W 091°04'3 6.1
2017-Oct-06 20:30N 32°26' W 091°01'3 5.1
2017-Oct-06 20:00N 32°23' W 090°60'3 5.4
2017-Oct-06 19:30N 32°21' W 090°58'3 5.9
2017-Oct-06 19:00N 32°20' W 090°54'1 1.5
2017-Oct-06 18:30N 32°21' W 090°54'1 1.3
2017-Oct-06 18:00N 32°21' W 090°53'0 0.0
2017-Oct-06 17:30N 32°21' W 090°53'0 0.0
2017-Oct-06 16:57N 32°21' W 090°53'0 0.0
2017-Oct-06 16:30N 32°21' W 090°53'0 0.0
2017-Oct-06 16:00N 32°21' W 090°53'0 0.0
2017-Oct-06 15:30N 32°21' W 090°53'0 0.0
2017-Oct-06 15:00N 32°21' W 090°53'0 0.0
2017-Oct-06 14:30N 32°21' W 090°53'0 0.0
2017-Oct-06 14:00N 32°21' W 090°53'0 0.0
2017-Oct-06 13:30N 32°21' W 090°53'0 0.0
2017-Oct-06 13:00N 32°21' W 090°53'0 0.0
2017-Oct-06 12:30N 32°21' W 090°53'0 0.0
2017-Oct-06 12:00N 32°21' W 090°53'0 0.0
2017-Oct-06 11:30N 32°21' W 090°53'0 0.0
2017-Oct-06 11:00N 32°21' W 090°53'0 0.0
2017-Oct-06 10:30N 32°21' W 090°53'0 0.0
2017-Oct-06 10:00N 32°21' W 090°53'1 2.5
2017-Oct-06 09:30N 32°20' W 090°54'2 4.2
2017-Oct-06 09:00N 32°18' W 090°55'0 0.2
2017-Oct-06 08:30N 32°18' W 090°55'2 4.8
2017-Oct-06 08:01N 32°17' W 090°57'2 4.8
2017-Oct-06 07:30N 32°15' W 090°59'3 6.0
2017-Oct-06 07:00N 32°12' W 090°60'3 6.1
2017-Oct-06 06:30N 32°09' W 091°00'3 5.3
2017-Oct-06 06:00N 32°07' W 091°03'2 3.7
2017-Oct-06 05:30N 32°08' W 091°05'5 4.9
2017-Oct-06 04:31N 32°03' W 091°03'0 5.7
2017-Oct-06 04:30N 32°03' W 091°03'3 6.5
2017-Oct-06 03:59N 32°00' W 091°05'3 6.2
2017-Oct-06 03:30N 31°59' W 091°08'3 5.9
2017-Oct-06 03:00N 31°58' W 091°11'8 5.9
2017-Oct-06 01:39N 31°51' W 091°17'1 5.3
2017-Oct-06 01:30N 31°51' W 091°18'  
2017-Sep-28 04:19N 31°38' W 091°24'411.6
2017-Sep-28 04:00N 31°42' W 091°24'611.3
2017-Sep-28 03:30N 31°47' W 091°22'7 9.1
2017-Sep-28 02:46N 31°51' W 091°16'311.5
2017-Sep-28 02:30N 31°53' W 091°13'611.0
2017-Sep-28 01:59N 31°59' W 091°11'510.7
2017-Sep-28 01:30N 32°00' W 091°05'5 9.9
2017-Sep-28 00:59N 32°05' W 091°05'3 5.2
2017-Sep-28 00:30N 32°08' W 091°04'5 9.3
2017-Sep-28 00:00N 32°11' W 090°60'611.4
2017-Sep-27 23:30N 32°16' W 090°57'5 9.6
2017-Sep-27 23:01N 32°20' W 090°54'1 1.5
2017-Sep-27 22:30N 32°21' W 090°53'0 0.9
2017-Sep-27 22:00N 32°21' W 090°53'0 0.0
2017-Sep-27 21:28N 32°21' W 090°53'0 0.0
2017-Sep-27 20:58N 32°21' W 090°53'0 0.0
2017-Sep-27 20:28N 32°21' W 090°53'0 0.0
2017-Sep-27 19:58N 32°21' W 090°53'0 0.0
2017-Sep-27 19:28N 32°21' W 090°53'0 0.0
2017-Sep-27 18:58N 32°21' W 090°53'0 0.0
2017-Sep-27 18:28N 32°21' W 090°53'0 0.0
2017-Sep-27 17:55N 32°21' W 090°53'0 0.0
2017-Sep-27 17:28N 32°21' W 090°53'0 0.0
2017-Sep-27 16:58N 32°21' W 090°53'0 0.0
2017-Sep-27 16:28N 32°21' W 090°53'0 0.0
2017-Sep-27 15:58N 32°21' W 090°53'0 0.0
2017-Sep-27 15:28N 32°21' W 090°53'0 0.0
2017-Sep-27 14:58N 32°21' W 090°53'0 0.0
2017-Sep-27 14:28N 32°21' W 090°53'0 0.0
2017-Sep-27 13:58N 32°21' W 090°53'0 0.0
2017-Sep-27 13:28N 32°21' W 090°53'0 0.0
2017-Sep-27 12:58N 32°21' W 090°53'0 0.0
2017-Sep-27 12:28N 32°21' W 090°53'0 0.0
2017-Sep-27 11:58N 32°21' W 090°53'0 0.0
2017-Sep-27 11:28N 32°21' W 090°53'0 0.0
2017-Sep-27 10:58N 32°21' W 090°53'0 0.0
2017-Sep-27 10:28N 32°21' W 090°53'0 0.0
2017-Sep-27 09:58N 32°21' W 090°53'0 0.0
2017-Sep-27 09:28N 32°21' W 090°53'0 0.0
2017-Sep-27 08:58N 32°21' W 090°53'0 0.0
2017-Sep-27 08:28N 32°21' W 090°53'0 0.0
2017-Sep-27 07:58N 32°21' W 090°53'0 0.0
2017-Sep-27 07:28N 32°21' W 090°53'0 0.0
2017-Sep-27 06:58N 32°21' W 090°53'0 0.0
2017-Sep-27 06:28N 32°21' W 090°53'0 0.0
2017-Sep-27 05:58N 32°21' W 090°53'0 0.0
2017-Sep-27 05:28N 32°21' W 090°53'0 0.0
2017-Sep-27 04:58N 32°21' W 090°53'0 0.0
2017-Sep-27 04:28N 32°21' W 090°53'  
Track history (hours):
 
Tides and Currents Weather Stations Pressure Air Temp Water Temp Dewpoint Dewpoint Depression Visibility Wind Speed Wind Dir Waves Ship Positions

American Queen

Owner: HMS American Queen Steamboat Company, LLC, Memphis, TN. More information available from US FCC via Universal Licensing System and Coast Guard Vessel Documentation Center.

Last reported at 2017-Oct-07 04:09 UTC. Time now 2017-Oct-18 16:29 UTC.
Position N 32°46' W 091°09'.
Warning: this ship's position is 11 days out of date.

Length 128 m; draft 2.6 m.

Type: Passenger vessel. MMSI: 366950740.

Date/timePositionNaut miles runAvg speedWind from/ knotsBaromVisibWave heightAir tempDewpointWater temp
2017-Oct-07 04:09N 32°46' W 091°09'1 6.4
2017-Oct-07 04:00N 32°45' W 091°09'4 5.4
2017-Oct-07 03:17N 32°44' W 091°05'8 1.8
2017-Oct-06 23:06N 32°38' W 091°09'1 6.5
2017-Oct-06 23:00N 32°37' W 091°09'3 5.9
2017-Oct-06 22:30N 32°35' W 091°07'3 5.3
2017-Oct-06 22:00N 32°32' W 091°06'3 6.6
2017-Oct-06 21:30N 32°29' W 091°07'3 6.7
2017-Oct-06 21:00N 32°27' W 091°04'3 6.1
2017-Oct-06 20:30N 32°26' W 091°01'3 5.1
2017-Oct-06 20:00N 32°23' W 090°60'3 5.4
2017-Oct-06 19:30N 32°21' W 090°58'3 5.9
2017-Oct-06 19:00N 32°20' W 090°54'1 1.5
2017-Oct-06 18:30N 32°21' W 090°54'1 1.3
2017-Oct-06 18:00N 32°21' W 090°53'0 0.0
2017-Oct-06 17:30N 32°21' W 090°53'0 0.0
2017-Oct-06 16:57N 32°21' W 090°53'0 0.0
2017-Oct-06 16:30N 32°21' W 090°53'0 0.0
2017-Oct-06 16:00N 32°21' W 090°53'0 0.0
2017-Oct-06 15:30N 32°21' W 090°53'0 0.0
2017-Oct-06 15:00N 32°21' W 090°53'0 0.0
2017-Oct-06 14:30N 32°21' W 090°53'0 0.0
2017-Oct-06 14:00N 32°21' W 090°53'0 0.0
2017-Oct-06 13:30N 32°21' W 090°53'0 0.0
2017-Oct-06 13:00N 32°21' W 090°53'0 0.0
2017-Oct-06 12:30N 32°21' W 090°53'0 0.0
2017-Oct-06 12:00N 32°21' W 090°53'0 0.0
2017-Oct-06 11:30N 32°21' W 090°53'0 0.0
2017-Oct-06 11:00N 32°21' W 090°53'0 0.0
2017-Oct-06 10:30N 32°21' W 090°53'0 0.0
2017-Oct-06 10:00N 32°21' W 090°53'1 2.5
2017-Oct-06 09:30N 32°20' W 090°54'2 4.2
2017-Oct-06 09:00N 32°18' W 090°55'0 0.2
2017-Oct-06 08:30N 32°18' W 090°55'2 4.8
2017-Oct-06 08:01N 32°17' W 090°57'2 4.8
2017-Oct-06 07:30N 32°15' W 090°59'3 6.0
2017-Oct-06 07:00N 32°12' W 090°60'3 6.1
2017-Oct-06 06:30N 32°09' W 091°00'3 5.3
2017-Oct-06 06:00N 32°07' W 091°03'2 3.7
2017-Oct-06 05:30N 32°08' W 091°05'5 4.9
2017-Oct-06 04:31N 32°03' W 091°03'0 5.7
2017-Oct-06 04:30N 32°03' W 091°03'3 6.5
2017-Oct-06 03:59N 32°00' W 091°05'3 6.2
2017-Oct-06 03:30N 31°59' W 091°08'3 5.9
2017-Oct-06 03:00N 31°58' W 091°11'8 5.9
2017-Oct-06 01:39N 31°51' W 091°17'1 5.3
2017-Oct-06 01:30N 31°51' W 091°18'  
2017-Sep-28 04:19N 31°38' W 091°24'411.6
2017-Sep-28 04:00N 31°42' W 091°24'611.3
2017-Sep-28 03:30N 31°47' W 091°22'7 9.1
2017-Sep-28 02:46N 31°51' W 091°16'311.5
2017-Sep-28 02:30N 31°53' W 091°13'611.0
2017-Sep-28 01:59N 31°59' W 091°11'510.7
2017-Sep-28 01:30N 32°00' W 091°05'5 9.9
2017-Sep-28 00:59N 32°05' W 091°05'3 5.2
2017-Sep-28 00:30N 32°08' W 091°04'5 9.3
2017-Sep-28 00:00N 32°11' W 090°60'611.4
2017-Sep-27 23:30N 32°16' W 090°57'5 9.6
2017-Sep-27 23:01N 32°20' W 090°54'1 1.5
2017-Sep-27 22:30N 32°21' W 090°53'0 0.9
2017-Sep-27 22:00N 32°21' W 090°53'0 0.0
2017-Sep-27 21:28N 32°21' W 090°53'0 0.0
2017-Sep-27 20:58N 32°21' W 090°53'0 0.0
2017-Sep-27 20:28N 32°21' W 090°53'0 0.0
2017-Sep-27 19:58N 32°21' W 090°53'0 0.0
2017-Sep-27 19:28N 32°21' W 090°53'0 0.0
2017-Sep-27 18:58N 32°21' W 090°53'0 0.0
2017-Sep-27 18:28N 32°21' W 090°53'0 0.0
2017-Sep-27 17:55N 32°21' W 090°53'0 0.0
2017-Sep-27 17:28N 32°21' W 090°53'0 0.0
2017-Sep-27 16:58N 32°21' W 090°53'0 0.0
2017-Sep-27 16:28N 32°21' W 090°53'0 0.0
2017-Sep-27 15:58N 32°21' W 090°53'0 0.0
2017-Sep-27 15:28N 32°21' W 090°53'0 0.0
2017-Sep-27 14:58N 32°21' W 090°53'0 0.0
2017-Sep-27 14:28N 32°21' W 090°53'0 0.0
2017-Sep-27 13:58N 32°21' W 090°53'0 0.0
2017-Sep-27 13:28N 32°21' W 090°53'0 0.0
2017-Sep-27 12:58N 32°21' W 090°53'0 0.0
2017-Sep-27 12:28N 32°21' W 090°53'0 0.0
2017-Sep-27 11:58N 32°21' W 090°53'0 0.0
2017-Sep-27 11:28N 32°21' W 090°53'0 0.0
2017-Sep-27 10:58N 32°21' W 090°53'0 0.0
2017-Sep-27 10:28N 32°21' W 090°53'0 0.0
2017-Sep-27 09:58N 32°21' W 090°53'0 0.0
2017-Sep-27 09:28N 32°21' W 090°53'0 0.0
2017-Sep-27 08:58N 32°21' W 090°53'0 0.0
2017-Sep-27 08:28N 32°21' W 090°53'0 0.0
2017-Sep-27 07:58N 32°21' W 090°53'0 0.0
2017-Sep-27 07:28N 32°21' W 090°53'0 0.0
2017-Sep-27 06:58N 32°21' W 090°53'0 0.0
2017-Sep-27 06:28N 32°21' W 090°53'0 0.0
2017-Sep-27 05:58N 32°21' W 090°53'0 0.0
2017-Sep-27 05:28N 32°21' W 090°53'0 0.0
2017-Sep-27 04:58N 32°21' W 090°53'0 0.0
2017-Sep-27 04:28N 32°21' W 090°53'  

Dump ship's entire track history